Time;durP1;ratioP1;P1;durP2;ratioP2;P2;SDS_P1;SDS_P2;PMS_P1;PMS_P2;Temp;Humidity;BMP_temperature;BMP_pressure;BME280_temperature;BME280_humidity;BME280_pressure;Samples;Min_cycle;Max_cycle;Signal;HPM_P1;HPM_P2
2023/06/15 00:02:13;;;;;;;;;;;;;;;23.28;34.99;101817.44;5085376;28;19935;-79
2023/06/15 00:04:39;;;;;;;;;;;;;;;23.28;34.85;101817.44;5084385;28;19917;-78
2023/06/15 00:07:04;;;;;;;;;;;;;;;23.30;35.08;101814.38;5084750;28;19916;-79
2023/06/15 00:09:30;;;;;;;;;;;;;;;23.30;34.85;101820.66;5085883;28;19952;-78
2023/06/15 00:11:55;;;;;;;;;;;;;;;23.28;35.51;101811.97;5084768;28;20010;-78
2023/06/15 00:14:20;;;;;;;;;;;;;;;23.23;35.33;101809.34;5086293;28;19944;-79
2023/06/15 00:16:46;;;;;;;;;;;;;;;23.16;35.33;101812.50;5086311;28;19943;-78
2023/06/15 00:19:11;;;;;;;;;;;;;;;23.12;35.29;101808.75;5082916;28;20398;-79
2023/06/15 00:21:40;;;;;;;;;;;;;;;23.12;35.14;101816.94;5088422;28;20027;-78
2023/06/15 00:24:06;;;;;;;;;;;;;;;23.10;35.58;101816.44;5086537;28;19955;-79
2023/06/15 00:26:31;;;;;;;;;;;;;;;23.03;35.44;101810.59;5086207;28;19975;-79
2023/06/15 00:28:57;;;;;;;;;;;;;;;23.00;35.27;101816.69;5081659;28;20281;-78
2023/06/15 00:31:22;;;;;;;;;;;;;;;23.01;35.56;101812.03;5086703;28;19998;-78
2023/06/15 00:33:47;;;;;;;;;;;;;;;22.98;35.49;101818.91;5083066;28;19916;-78
2023/06/15 00:36:13;;;;;;;;;;;;;;;22.93;36.02;101819.00;5085409;28;19930;-80
2023/06/15 00:38:38;;;;;;;;;;;;;;;22.83;35.62;101811.84;5084924;28;20010;-78
2023/06/15 00:41:04;;;;;;;;;;;;;;;22.79;35.72;101818.97;5082051;28;19986;-79
2023/06/15 00:43:29;;;;;;;;;;;;;;;22.71;36.17;101813.44;5084062;28;19970;-78
2023/06/15 00:45:54;;;;;;;;;;;;;;;22.70;35.55;101804.44;5087097;28;20459;-78
2023/06/15 00:48:20;;;;;;;;;;;;;;;22.67;35.75;101807.78;5087197;28;19945;-79
2023/06/15 00:50:45;;;;;;;;;;;;;;;22.64;35.93;101810.31;5080060;28;19942;-79
2023/06/15 00:53:11;;;;;;;;;;;;;;;22.56;35.87;101812.63;5083347;28;20413;-79
2023/06/15 00:55:37;;;;;;;;;;;;;;;22.56;35.74;101807.16;5084121;28;19970;-78
2023/06/15 00:58:03;;;;;;;;;;;;;;;22.58;35.82;101804.91;5083313;28;19939;-79
2023/06/15 01:00:37;;;;;;;;;;;;;;;22.61;35.49;101807.03;5082296;28;20321;-78
2023/06/15 01:03:04;;;;;;;;;;;;;;;22.59;35.75;101809.28;5084922;28;19919;-78
2023/06/15 01:05:30;;;;;;;;;;;;;;;22.59;35.81;101806.53;5066521;28;19920;-79
2023/06/15 01:07:56;;;;;;;;;;;;;;;22.54;36.09;101812.09;5085564;28;19960;-78
2023/06/15 01:10:23;;;;;;;;;;;;;;;22.51;35.94;101804.53;5083752;28;19932;-78
2023/06/15 01:12:53;;;;;;;;;;;;;;;22.43;37.44;101807.94;5082245;28;19923;-78
2023/06/15 01:15:19;;;;;;;;;;;;;;;22.41;36.20;101798.44;5086321;28;19924;-78
2023/06/15 01:17:46;;;;;;;;;;;;;;;22.40;36.22;101797.63;5084286;28;20469;-79
2023/06/15 01:20:17;;;;;;;;;;;;;;;22.37;36.69;101797.44;5082065;28;20527;-78
2023/06/15 01:22:49;;;;;;;;;;;;;;;22.35;36.43;101792.28;5083314;28;19923;-79
2023/06/15 01:25:26;;;;;;;;;;;;;;;22.35;36.27;101795.00;5082148;28;19923;-79
2023/06/15 01:27:52;;;;;;;;;;;;;;;22.37;36.45;101808.34;5080964;28;19923;-79
2023/06/15 01:30:18;;;;;;;;;;;;;;;22.38;36.33;101799.03;5083589;28;19916;-79
2023/06/15 01:32:43;;;;;;;;;;;;;;;22.35;37.05;101800.47;5079596;28;19916;-78
2023/06/15 01:35:09;;;;;;;;;;;;;;;22.33;36.38;101799.16;5083101;28;20327;-78
2023/06/15 01:37:34;;;;;;;;;;;;;;;;;;5080438;28;20101;-78
2023/06/15 01:39:59;;;;;;;;;;;;;;;22.38;36.37;101796.31;5079757;28;19924;-78
2023/06/15 01:42:25;;;;;;;;;;;;;;;22.41;36.44;101793.78;5083877;28;19953;-78
2023/06/15 01:44:52;;;;;;;;;;;;;;;22.39;36.91;101796.00;5086619;28;19931;-79
2023/06/15 01:47:18;;;;;;;;;;;;;;;22.39;35.99;101796.00;5083778;28;20025;-78
2023/06/15 01:49:43;;;;;;;;;;;;;;;22.37;37.85;101798.25;5083278;28;19945;-78
2023/06/15 01:52:08;;;;;;;;;;;;;;;22.30;36.56;101797.84;5082220;28;20295;-78
2023/06/15 01:54:34;;;;;;;;;;;;;;;22.28;37.10;101803.59;5085119;28;19924;-78
2023/06/15 01:56:59;;;;;;;;;;;;;;;22.26;37.02;101803.09;5086178;28;20492;-78
2023/06/15 01:59:25;;;;;;;;;;;;;;;22.28;37.72;101805.53;5084232;28;19969;-78
2023/06/15 02:01:50;;;;;;;;;;;;;;;22.33;36.54;101802.69;5080988;28;19921;-79
2023/06/15 02:04:15;;;;;;;;;;;;;;;22.34;37.03;101790.66;5082084;28;19916;-79
2023/06/15 02:06:41;;;;;;;;;;;;;;;22.29;37.14;101801.69;5080779;28;19928;-79
2023/06/15 02:09:06;;;;;;;;;;;;;;;22.29;37.06;101790.75;5082912;28;19919;-80
2023/06/15 02:11:31;;;;;;;;;;;;;;;22.29;37.01;101796.22;5083923;28;20885;-78
2023/06/15 02:13:59;;;;;;;;;;;;;;;22.27;38.92;101795.72;5083117;28;20280;-79
2023/06/15 02:16:24;;;;;;;;;;;;;;;22.23;37.67;101791.94;5085946;28;19923;-78
2023/06/15 02:18:51;;;;;;;;;;;;;;;22.24;37.52;101790.84;5084824;28;20468;-78
2023/06/15 02:21:16;;;;;;;;;;;;;;;22.26;37.51;101781.25;5081355;28;20001;-79
2023/06/15 02:23:41;;;;;;;;;;;;;;;22.25;37.63;101789.72;5080225;28;20380;-78
2023/06/15 02:26:07;;;;;;;;;;;;;;;22.23;37.33;101787.28;5082572;28;20038;-79
2023/06/15 02:28:33;;;;;;;;;;;;;;;22.25;37.37;101792.44;5084179;28;19920;-79
2023/06/15 02:30:58;;;;;;;;;;;;;;;22.29;37.09;101793.50;5087673;28;19938;-79
2023/06/15 02:33:25;;;;;;;;;;;;;;;22.24;38.28;101785.38;5083172;28;20728;-79
2023/06/15 02:35:51;;;;;;;;;;;;;;;22.22;37.98;101784.88;5069366;28;19923;-79
2023/06/15 02:38:16;;;;;;;;;;;;;;;22.22;37.71;101791.13;5086561;28;19912;-79
2023/06/15 02:40:41;;;;;;;;;;;;;;;22.22;37.72;101780.22;5083832;28;19916;-78
2023/06/15 02:43:07;;;;;;;;;;;;;;;22.23;38.38;101784.56;5083865;28;20696;-79
2023/06/15 02:45:32;;;;;;;;;;;;;;;22.18;37.98;101789.31;5087663;28;20490;-79
2023/06/15 02:47:58;;;;;;;;;;;;;;;22.14;38.90;101788.31;5088269;28;19958;-79
2023/06/15 02:50:23;;;;;;;;;;;;;;;22.14;37.94;101789.13;5083310;28;19924;-79
2023/06/15 02:52:49;;;;;;;;;;;;;;;22.18;37.49;101783.84;5087156;28;19920;-79
2023/06/15 02:55:15;;;;;;;;;;;;;;;22.24;37.61;101782.66;5087323;28;20454;-79
2023/06/15 02:57:41;;;;;;;;;;;;;;;22.26;37.98;101786.72;5088338;28;20003;-79
2023/06/15 03:00:09;;;;;;;;;;;;;;;22.27;38.47;101787.53;5089263;28;20003;-78
2023/06/15 03:02:34;;;;;;;;;;;;;;;22.27;38.19;101798.44;5083324;28;19981;-79
2023/06/15 03:04:59;;;;;;;;;;;;;;;22.28;38.55;101800.06;5086887;28;19932;-78
2023/06/15 03:07:25;;;;;;;;;;;;;;;22.29;38.41;101801.69;5086636;28;19985;-78
2023/06/15 03:09:51;;;;;;;;;;;;;;;22.25;38.57;101797.91;5084893;28;20426;-79
2023/06/15 03:12:17;;;;;;;;;;;;;;;22.25;38.52;101801.44;5071394;28;20011;-79
2023/06/15 03:14:50;;;;;;;;;;;;;;;22.22;38.13;101802.06;5083754;28;19920;-79
2023/06/15 03:17:18;;;;;;;;;;;;;;;22.23;39.09;101798.22;5088532;28;19916;-78
2023/06/15 03:19:46;;;;;;;;;;;;;;;22.25;39.12;101800.63;5087352;28;19916;-78
2023/06/15 03:22:11;;;;;;;;;;;;;;;22.25;38.47;101795.19;5088417;28;20001;-78
2023/06/15 03:24:39;;;;;;;;;;;;;;;22.26;39.12;101796.78;5082158;28;20880;-79
2023/06/15 03:27:06;;;;;;;;;;;;;;;22.29;38.55;101794.31;5084234;28;20010;-78
2023/06/15 03:29:36;;;;;;;;;;;;;;;22.33;38.57;101796.41;5086778;28;19916;-79
2023/06/15 03:32:02;;;;;;;;;;;;;;;22.37;38.63;101798.25;5088578;28;19927;-80
2023/06/15 03:34:28;;;;;;;;;;;;;;;22.24;39.72;101801.75;5086566;28;19924;-79
2023/06/15 03:36:53;;;;;;;;;;;;;;;22.22;39.23;101804.78;5085512;28;20011;-79
2023/06/15 03:39:18;;;;;;;;;;;;;;;22.26;39.57;101808.56;5083259;28;20315;-79
2023/06/15 03:41:44;;;;;;;;;;;;;;;22.27;39.78;101798.44;5082326;28;20412;-79
2023/06/15 03:44:09;;;;;;;;;;;;;;;22.28;39.58;101805.53;5087055;28;19942;-79
2023/06/15 03:46:35;;;;;;;;;;;;;;;22.31;38.87;101807.66;5080488;28;20294;-79
2023/06/15 03:49:00;;;;;;;;;;;;;;;;;;5087305;28;20018;-79
2023/06/15 03:51:27;;;;;;;;;;;;;;;22.37;38.81;101809.16;5084245;28;20390;-79
2023/06/15 03:53:52;;;;;;;;;;;;;;;22.39;38.90;101809.66;5088353;28;19977;-79
2023/06/15 03:56:17;;;;;;;;;;;;;;;22.44;39.40;101814.22;5085146;28;19916;-79
2023/06/15 03:58:43;;;;;;;;;;;;;;;22.46;38.83;101812.81;5084335;28;20509;-78
2023/06/15 04:01:08;;;;;;;;;;;;;;;22.48;39.14;101805.13;5084406;28;19959;-79
2023/06/15 04:03:36;;;;;;;;;;;;;;;22.51;38.88;101804.53;5083767;28;19931;-79
2023/06/15 04:06:05;;;;;;;;;;;;;;;22.54;39.10;101805.84;5086211;28;20598;-78
2023/06/15 04:08:34;;;;;;;;;;;;;;;22.55;39.25;101800.06;5085038;28;19965;-79
2023/06/15 04:11:00;;;;;;;;;;;;;;;22.56;38.62;101801.69;5085432;28;19916;-79
2023/06/15 04:13:25;;;;;;;;;;;;;;;22.60;38.48;101807.34;5084246;28;20299;-79
2023/06/15 04:15:52;;;;;;;;;;;;;;;22.63;38.99;101806.75;5083253;28;19927;-79
2023/06/15 04:18:17;;;;;;;;;;;;;;;22.66;37.86;101808.06;5083149;28;19920;-79
2023/06/15 04:20:43;;;;;;;;;;;;;;;22.69;38.53;101815.66;5084408;28;19924;-79
2023/06/15 04:23:09;;;;;;;;;;;;;;;22.69;38.68;101815.66;5083880;28;19923;-80
2023/06/15 04:25:35;;;;;;;;;;;;;;;22.68;39.11;101816.78;5085797;28;20006;-79
2023/06/15 04:28:02;;;;;;;;;;;;;;;22.65;39.14;101820.94;5082075;28;20457;-78
2023/06/15 04:30:28;;;;;;;;;;;;;;;22.65;39.29;101814.66;5084950;28;19920;-79
2023/06/15 04:33:04;;;;;;;;;;;;;;;22.65;39.68;101817.38;5081970;28;19924;-79
2023/06/15 04:35:31;;;;;;;;;;;;;;;22.66;39.01;101811.63;5082198;28;19916;-79
2023/06/15 04:37:58;;;;;;;;;;;;;;;22.70;38.94;101815.34;5068800;28;19923;-79
2023/06/15 04:40:24;;;;;;;;;;;;;;;22.74;38.86;101821.00;5082240;28;19931;-79
2023/06/15 04:42:50;;;;;;;;;;;;;;;22.72;39.53;101825.97;5080447;28;19921;-79
2023/06/15 04:45:15;;;;;;;;;;;;;;;22.74;38.93;101830.00;5085083;28;20329;-79
2023/06/15 04:47:42;;;;;;;;;;;;;;;22.76;38.44;101825.06;5085130;28;19927;-79
2023/06/15 04:50:07;;;;;;;;;;;;;;;22.80;38.54;101822.53;5083384;28;19998;-79
2023/06/15 04:52:32;;;;;;;;;;;;;;;22.85;38.66;101826.00;5081136;28;19974;-79
2023/06/15 04:54:58;;;;;;;;;;;;;;;22.90;38.23;101830.56;5086018;28;19927;-79
2023/06/15 04:57:23;;;;;;;;;;;;;;;22.95;38.09;101826.91;5082204;28;19916;-79
2023/06/15 04:59:48;;;;;;;;;;;;;;;23.01;38.89;101829.22;5081976;28;20512;-79
2023/06/15 05:02:14;;;;;;;;;;;;;;;23.04;38.59;101827.81;5080037;28;19919;-79
2023/06/15 05:04:39;;;;;;;;;;;;;;;23.08;38.21;101826.88;5079309;28;19917;-79
2023/06/15 05:07:04;;;;;;;;;;;;;;;23.15;38.17;101826.47;5083497;28;19916;-80
2023/06/15 05:09:30;;;;;;;;;;;;;;;23.21;38.03;101836.19;5077908;28;19916;-81
2023/06/15 05:11:56;;;;;;;;;;;;;;;23.25;37.90;101828.19;5081261;28;19916;-81
2023/06/15 05:14:22;;;;;;;;;;;;;;;23.30;38.24;101831.59;5082667;28;19997;-81
2023/06/15 05:16:47;;;;;;;;;;;;;;;23.37;37.61;101831.19;5080648;28;21619;-81
2023/06/15 05:19:12;;;;;;;;;;;;;;;23.43;37.96;101835.41;5083990;28;19931;-80
2023/06/15 05:21:38;;;;;;;;;;;;;;;23.48;37.06;101824.34;5084664;28;19931;-82
2023/06/15 05:24:03;;;;;;;;;;;;;;;23.55;37.41;101827.50;5082813;28;20475;-81
2023/06/15 05:26:28;;;;;;;;;;;;;;;23.58;37.76;101832.38;5084346;28;19913;-81
2023/06/15 05:28:54;;;;;;;;;;;;;;;23.59;37.46;101833.97;5084023;28;19916;-81
2023/06/15 05:31:19;;;;;;;;;;;;;;;23.63;37.19;101834.97;5081880;28;19994;-81
2023/06/15 05:33:44;;;;;;;;;;;;;;;23.66;37.41;101839.81;5082126;28;19955;-81
2023/06/15 05:36:10;;;;;;;;;;;;;;;23.66;37.78;101845.28;5077157;28;20393;-80
2023/06/15 05:38:35;;;;;;;;;;;;;;;23.66;37.67;101850.75;5084465;28;19932;-81
2023/06/15 05:41:00;;;;;;;;;;;;;;;23.72;37.16;101854.22;5086616;28;20007;-81
2023/06/15 05:43:26;;;;;;;;;;;;;;;23.77;37.19;101852.16;5079828;28;19920;-81
2023/06/15 05:45:51;;;;;;;;;;;;;;;23.83;37.01;101850.09;5082614;28;20422;-81
2023/06/15 05:48:19;;;;;;;;;;;;;;;23.91;37.20;101848.56;5086176;28;19916;-81
2023/06/15 05:50:44;;;;;;;;;;;;;;;23.96;37.23;101853.91;5082788;28;19917;-81
2023/06/15 05:53:09;;;;;;;;;;;;;;;24.01;37.04;101857.31;5082526;28;19926;-81
2023/06/15 05:55:35;;;;;;;;;;;;;;;24.04;37.09;101861.34;5086027;28;19916;-81
2023/06/15 05:58:01;;;;;;;;;;;;;;;24.05;37.13;101858.28;5085936;28;20006;-82
2023/06/15 06:00:30;;;;;;;;;;;;;;;24.09;37.07;101861.25;5083909;28;19916;-82
2023/06/15 06:02:55;;;;;;;;;;;;;;;24.15;36.85;101856.44;5084384;28;20066;-82
2023/06/15 06:05:21;;;;;;;;;;;;;;;24.22;36.95;101865.81;5084777;28;20015;-81
2023/06/15 06:07:46;;;;;;;;;;;;;;;24.30;37.08;101865.09;5064716;28;19946;-81
2023/06/15 06:10:12;;;;;;;;;;;;;;;24.38;36.66;101860.78;5082250;28;19950;-82
2023/06/15 06:12:37;;;;;;;;;;;;;;;24.46;37.19;101868.25;5085901;28;19951;-80
2023/06/15 06:15:03;;;;;;;;;;;;;;;24.56;36.85;101861.66;5084296;28;20387;-81
2023/06/15 06:17:28;;;;;;;;;;;;;;;24.72;37.00;101860.13;5084842;28;19931;-81
2023/06/15 06:19:53;;;;;;;;;;;;;;;24.86;36.66;101865.50;5069381;28;19920;-81
2023/06/15 06:22:19;;;;;;;;;;;;;;;25.00;36.51;101861.56;5084136;28;20372;-81
2023/06/15 06:24:44;;;;;;;;;;;;;;;25.11;37.19;101866.72;5084315;28;19916;-81
2023/06/15 06:27:09;;;;;;;;;;;;;;;25.20;36.20;101867.56;5086260;28;19916;-81
2023/06/15 06:29:35;;;;;;;;;;;;;;;25.33;36.52;101865.81;5083362;28;19916;-81
2023/06/15 06:32:00;;;;;;;;;;;;;;;25.46;36.15;101862.91;5083895;28;20429;-82
2023/06/15 06:34:25;;;;;;;;;;;;;;;25.59;35.85;101861.94;5084008;28;19958;-81
2023/06/15 06:36:51;;;;;;;;;;;;;;;25.71;36.00;101863.28;5083415;28;19923;-82
2023/06/15 06:39:16;;;;;;;;;;;;;;;25.77;35.89;101857.28;5084315;28;19920;-81
2023/06/15 06:41:42;;;;;;;;;;;;;;;25.80;35.67;101856.63;5082461;28;20340;-82
2023/06/15 06:44:07;;;;;;;;;;;;;;;25.84;35.51;101856.78;5085550;28;20478;-82
2023/06/15 06:46:33;;;;;;;;;;;;;;;25.92;35.65;101860.69;5085621;28;19974;-81
2023/06/15 06:48:59;;;;;;;;;;;;;;;26.03;35.47;101862.78;5084372;28;20445;-82
2023/06/15 06:51:24;;;;;;;;;;;;;;;26.19;35.54;101865.78;5082515;28;19931;-81
2023/06/15 06:53:49;;;;;;;;;;;;;;;26.31;35.25;101868.66;5081623;28;20346;-81
2023/06/15 06:56:15;;;;;;;;;;;;;;;26.41;35.03;101865.59;5083931;28;20826;-82
2023/06/15 06:58:40;;;;;;;;;;;;;;;26.49;35.25;101867.50;5083633;28;19927;-82
2023/06/15 07:01:06;;;;;;;;;;;;;;;26.58;34.70;101864.75;5083095;28;19927;-81
2023/06/15 07:03:31;;;;;;;;;;;;;;;26.65;35.09;101858.72;5082359;28;19924;-82
2023/06/15 07:05:56;;;;;;;;;;;;;;;26.70;35.09;101858.53;5088068;28;19920;-81
2023/06/15 07:08:21;;;;;;;;;;;;;;;26.72;34.50;101865.31;5082082;28;19981;-82
2023/06/15 07:10:48;;;;;;;;;;;;;;;26.73;34.57;101864.16;5084404;28;19981;-81
2023/06/15 07:13:13;;;;;;;;;;;;;;;26.72;34.92;101864.50;5083632;28;19916;-81
2023/06/15 07:15:38;;;;;;;;;;;;;;;26.74;34.74;101864.97;5083254;28;19982;-81
2023/06/15 07:18:03;;;;;;;;;;;;;;;26.77;34.59;101862.38;5085033;28;20612;-81
2023/06/15 07:20:29;;;;;;;;;;;;;;;26.75;34.34;101863.84;5085012;28;19959;-81
2023/06/15 07:22:54;;;;;;;;;;;;;;;26.73;34.52;101863.38;5085155;28;19924;-82
2023/06/15 07:25:20;;;;;;;;;;;;;;;26.78;34.65;101863.19;5086056;28;19939;-81
2023/06/15 07:27:45;;;;;;;;;;;;;;;26.84;34.74;101864.59;5092710;28;19921;-81
2023/06/15 07:30:11;;;;;;;;;;;;;;;26.89;34.48;101866.34;5086053;28;20393;-82
2023/06/15 07:32:36;;;;;;;;;;;;;;;26.95;34.73;101862.31;5086927;28;19923;-81
2023/06/15 07:35:02;;;;;;;;;;;;;;;27.03;34.09;101864.22;5086725;28;19920;-81
2023/06/15 07:37:27;;;;;;;;;;;;;;;27.06;34.02;101864.34;5084929;28;19924;-81
2023/06/15 07:39:52;;;;;;;;;;;;;;;27.21;34.09;101860.22;5088253;28;19916;-81
2023/06/15 07:42:18;;;;;;;;;;;;;;;27.34;34.02;101863.84;5081716;28;19959;-81
2023/06/15 07:44:43;;;;;;;;;;;;;;;27.43;33.88;101861.84;5084612;28;19917;-82
2023/06/15 07:47:09;;;;;;;;;;;;;;;27.54;33.62;101863.06;5069065;28;19916;-82
2023/06/15 07:49:34;;;;;;;;;;;;;;;27.61;33.46;101862.50;5087136;28;19920;-82
2023/06/15 07:52:00;;;;;;;;;;;;;;;27.67;33.55;101864.75;5086730;28;20338;-82
2023/06/15 07:54:25;;;;;;;;;;;;;;;27.70;33.63;101855.00;5088377;28;20052;-82
2023/06/15 07:56:50;;;;;;;;;;;;;;;27.69;33.58;101858.91;5083441;28;19924;-78
2023/06/15 07:59:16;;;;;;;;;;;;;;;27.71;33.49;101864.06;5080714;28;19931;-80
2023/06/15 08:01:42;;;;;;;;;;;;;;;27.74;33.38;101866.97;5079128;28;19931;-81
2023/06/15 08:04:10;;;;;;;;;;;;;;;27.75;33.25;101863.06;5081908;28;20372;-80
2023/06/15 08:06:38;;;;;;;;;;;;;;;27.75;33.34;101863.06;5076836;28;20348;-80
2023/06/15 08:09:04;;;;;;;;;;;;;;;27.73;33.24;101864.53;5080655;28;19916;-80
2023/06/15 08:11:31;;;;;;;;;;;;;;;27.75;33.34;101865.81;5077040;28;19916;-80
2023/06/15 08:13:57;;;;;;;;;;;;;;;27.80;33.25;101865.59;5081632;28;19931;-80
2023/06/15 08:16:22;;;;;;;;;;;;;;;27.84;33.28;101860.25;5066620;28;19920;-82
2023/06/15 08:18:47;;;;;;;;;;;;;;;27.91;33.50;101866.81;5079613;28;19920;-80
2023/06/15 08:21:13;;;;;;;;;;;;;;;28.00;33.42;101858.44;5078429;28;19971;-81
2023/06/15 08:23:38;;;;;;;;;;;;;;;28.07;32.82;101864.22;5076849;28;19947;-81
2023/06/15 08:26:04;;;;;;;;;;;;;;;28.17;32.79;101862.97;5079922;28;20422;-82
2023/06/15 08:28:29;;;;;;;;;;;;;;;28.24;32.50;101858.53;5060545;28;19926;-81
2023/06/15 08:30:55;;;;;;;;;;;;;;;28.26;32.29;101860.97;5079171;28;20010;-81
2023/06/15 08:33:20;;;;;;;;;;;;;;;28.28;32.67;101853.97;5077702;28;20183;-81
2023/06/15 08:35:46;;;;;;;;;;;;;;;28.16;32.80;101855.84;5063117;28;19966;-81
2023/06/15 08:38:12;;;;;;;;;;;;;;;28.23;33.03;101861.63;5078926;28;20008;-82
2023/06/15 08:40:37;;;;;;;;;;;;;;;28.35;32.75;101866.38;5080331;28;20001;-81
2023/06/15 08:43:05;;;;;;;;;;;;;;;28.44;32.67;101861.56;5079171;28;20276;-82
2023/06/15 08:45:40;;;;;;;;;;;;;;;28.58;32.37;101859.28;5063260;28;19927;-81
2023/06/15 08:48:07;;;;;;;;;;;;;;;28.72;32.31;101851.47;5081344;28;19920;-81
2023/06/15 08:50:36;;;;;;;;;;;;;;;28.77;32.14;101856.78;5076752;28;20668;-82
2023/06/15 08:53:02;;;;;;;;;;;;;;;28.88;32.30;101854.38;5082506;28;20024;-80
2023/06/15 08:55:28;;;;;;;;;;;;;;;29.01;31.95;101855.16;5079903;28;20411;-81
2023/06/15 08:57:53;;;;;;;;;;;;;;;29.12;31.92;101854.34;5079418;28;19965;-81
2023/06/15 09:00:22;;;;;;;;;;;;;;;29.28;31.48;101861.91;5061653;28;19919;-82
2023/06/15 09:02:50;;;;;;;;;;;;;;;29.39;31.40;101863.03;5080653;28;19935;-82
2023/06/15 09:05:16;;;;;;;;;;;;;;;29.49;31.29;101857.06;5078777;28;19970;-82
2023/06/15 09:07:41;;;;;;;;;;;;;;;29.50;31.50;101853.13;5080089;28;20077;-83
2023/06/15 09:10:07;;;;;;;;;;;;;;;29.55;31.02;101855.66;5085974;28;19920;-82
2023/06/15 09:12:32;;;;;;;;;;;;;;;29.71;30.80;101864.00;5085162;28;19924;-82
2023/06/15 09:14:57;;;;;;;;;;;;;;;29.88;30.76;101860.13;5083451;28;19996;-83
2023/06/15 09:17:26;;;;;;;;;;;;;;;30.06;30.28;101866.97;5084097;28;19920;-82
2023/06/15 09:19:52;;;;;;;;;;;;;;;30.25;30.10;101864.31;5083965;28;19922;-82
2023/06/15 09:22:17;;;;;;;;;;;;;;;30.43;29.64;101862.00;5083518;28;19928;-82
2023/06/15 09:24:45;;;;;;;;;;;;;;;30.62;29.52;101855.78;5063921;28;19924;-82
2023/06/15 09:27:17;;;;;;;;;;;;;;;30.73;29.45;101856.84;5080750;28;19916;-82
2023/06/15 09:30:05;;;;;;;;;;;;;;;30.80;29.48;101847.91;5084426;28;19961;-83
2023/06/15 09:32:30;;;;;;;;;;;;;;;30.97;29.77;101842.00;5084633;28;19947;-83
2023/06/15 09:34:59;;;;;;;;;;;;;;;31.18;29.21;101848.03;5087222;28;19963;-82
2023/06/15 09:37:26;;;;;;;;;;;;;;;31.37;28.18;101838.94;5076331;28;19916;-82
2023/06/15 09:39:52;;;;;;;;;;;;;;;31.53;28.17;101831.34;5069045;28;19916;-83
2023/06/15 09:42:17;;;;;;;;;;;;;;;31.57;28.41;101832.22;5078006;28;19924;-82
2023/06/15 09:44:43;;;;;;;;;;;;;;;31.68;28.43;101826.91;5084991;28;20011;-82
2023/06/15 09:47:14;;;;;;;;;;;;;;;31.80;28.16;101831.53;5080501;28;19916;-82
2023/06/15 09:49:43;;;;;;;;;;;;;;;31.94;27.85;101829.00;5086695;28;19922;-83
2023/06/15 09:52:11;;;;;;;;;;;;;;;31.93;27.62;101823.81;5084861;28;19920;-83
2023/06/15 09:54:38;;;;;;;;;;;;;;;32.00;27.84;101827.53;5086590;28;20461;-83
2023/06/15 09:57:04;;;;;;;;;;;;;;;32.07;27.83;101819.34;5080464;28;19921;-82
2023/06/15 09:59:29;;;;;;;;;;;;;;;32.20;27.83;101824.72;5079752;28;19923;-83
2023/06/15 10:01:55;;;;;;;;;;;;;;;32.30;28.00;101819.38;5083160;28;19920;-83
2023/06/15 10:04:22;;;;;;;;;;;;;;;32.40;27.49;101815.19;5061965;28;19924;-83
2023/06/15 10:06:50;;;;;;;;;;;;;;;32.46;27.00;101810.91;5079745;28;19960;-83
2023/06/15 10:09:18;;;;;;;;;;;;;;;32.52;27.48;101815.00;5078145;28;19912;-83
2023/06/15 10:11:45;;;;;;;;;;;;;;;32.54;27.64;101815.41;5060525;28;19956;-83
2023/06/15 10:14:26;;;;;;;;;;;;;;;32.58;26.87;101815.47;5080354;28;19920;-83
2023/06/15 10:16:56;;;;;;;;;;;;;;;32.53;26.46;101813.00;5079238;28;19961;-83
2023/06/15 10:19:23;;;;;;;;;;;;;;;32.49;27.21;101815.72;5078174;28;19916;-82
2023/06/15 10:21:49;;;;;;;;;;;;;;;32.54;27.09;101807.09;5073633;28;19936;-83
2023/06/15 10:24:17;;;;;;;;;;;;;;;32.61;26.98;101812.75;5080005;28;19928;-83
2023/06/15 10:26:45;;;;;;;;;;;;;;;32.66;27.17;101804.09;5077251;28;19969;-83
2023/06/15 10:29:23;;;;;;;;;;;;;;;32.73;27.33;101803.41;5080508;28;19920;-83
2023/06/15 10:31:48;;;;;;;;;;;;;;;32.76;26.72;101800.69;5079688;28;20498;-83
2023/06/15 10:34:26;;;;;;;;;;;;;;;32.83;27.41;101811.09;5078984;28;19927;-83
2023/06/15 10:36:51;;;;;;;;;;;;;;;32.83;26.81;101801.97;5077666;28;20062;-83
2023/06/15 10:39:22;;;;;;;;;;;;;;;32.78;26.15;101794.75;5085889;28;20011;-83
2023/06/15 10:41:51;;;;;;;;;;;;;;;32.79;26.53;101795.56;5078904;28;20390;-82
2023/06/15 10:44:16;;;;;;;;;;;;;;;32.82;26.40;101794.81;5081676;28;19976;-83
2023/06/15 10:46:41;;;;;;;;;;;;;;;32.82;25.15;101786.50;5080019;28;19920;-82
2023/06/15 10:49:08;;;;;;;;;;;;;;;32.89;26.11;101783.84;5079720;28;20590;-83
2023/06/15 10:51:37;;;;;;;;;;;;;;;33.09;26.80;101785.31;5078532;28;19967;-83
2023/06/15 10:54:04;;;;;;;;;;;;;;;33.34;26.47;101786.41;5080927;28;20341;-83
2023/06/15 10:56:30;;;;;;;;;;;;;;;33.51;26.36;101784.22;5080317;28;20007;-83
2023/06/15 10:58:59;;;;;;;;;;;;;;;33.61;25.21;101786.34;5061759;28;20565;-83
2023/06/15 11:01:25;;;;;;;;;;;;;;;33.66;25.35;101783.22;5080658;28;19931;-83
2023/06/15 11:03:51;;;;;;;;;;;;;;;33.68;25.05;101775.28;5086205;28;19928;-83
2023/06/15 11:06:18;;;;;;;;;;;;;;;33.65;25.38;101776.06;5086110;28;19920;-84
2023/06/15 11:08:53;;;;;;;;;;;;;;;33.62;25.33;101771.25;5083275;28;19934;-84
2023/06/15 11:11:20;;;;;;;;;;;;;;;33.59;22.97;101778.38;5084693;28;19920;-84
2023/06/15 11:13:55;;;;;;;;;;;;;;;33.59;25.28;101772.03;5083324;28;20390;-84
2023/06/15 11:16:29;;;;;;;;;;;;;;;33.42;23.97;101767.88;5083236;28;19931;-84
2023/06/15 11:18:58;;;;;;;;;;;;;;;33.37;25.79;101767.41;5086185;28;19942;-83
2023/06/15 11:21:24;;;;;;;;;;;;;;;33.43;25.41;101763.91;5081683;28;20018;-83
2023/06/15 11:23:56;;;;;;;;;;;;;;;33.48;24.59;101769.13;5083666;28;19944;-83
2023/06/15 11:26:22;;;;;;;;;;;;;;;33.50;24.50;101763.19;5079493;28;19924;-84
2023/06/15 11:28:48;;;;;;;;;;;;;;;33.51;24.62;101762.00;5082874;28;19985;-84
2023/06/15 11:31:16;;;;;;;;;;;;;;;33.49;25.60;101761.59;5083938;28;19924;-84
2023/06/15 11:33:42;;;;;;;;;;;;;;;33.46;25.37;101762.34;5082723;28;19924;-84
2023/06/15 11:36:08;;;;;;;;;;;;;;;33.44;25.42;101764.72;5082337;28;19928;-83
2023/06/15 11:38:34;;;;;;;;;;;;;;;33.44;25.28;101753.59;5080849;28;19924;-83
2023/06/15 11:41:00;;;;;;;;;;;;;;;33.42;25.08;101754.00;5081364;28;19917;-84
2023/06/15 11:43:29;;;;;;;;;;;;;;;33.39;25.26;101756.69;5079912;28;19924;-84
2023/06/15 11:45:55;;;;;;;;;;;;;;;33.35;25.15;101751.13;5079232;28;19921;-84
2023/06/15 11:48:20;;;;;;;;;;;;;;;33.39;25.84;101763.06;5080069;28;19978;-84
2023/06/15 11:50:45;;;;;;;;;;;;;;;33.33;25.16;101757.06;5082749;28;19916;-84
2023/06/15 11:53:16;;;;;;;;;;;;;;;33.28;24.68;101748.22;5081911;28;21597;-83
2023/06/15 11:55:42;;;;;;;;;;;;;;;33.41;25.85;101749.63;5079790;28;20003;-83
2023/06/15 11:58:08;;;;;;;;;;;;;;;33.64;25.33;101749.44;5081801;28;19936;-84
2023/06/15 12:00:34;;;;;;;;;;;;;;;33.72;23.50;101747.53;5075878;28;19920;-84
2023/06/15 12:02:59;;;;;;;;;;;;;;;33.74;24.61;101732.06;5078706;28;19924;-83
2023/06/15 12:05:25;;;;;;;;;;;;;;;33.85;24.13;101735.78;5076601;28;19920;-84
2023/06/15 12:07:50;;;;;;;;;;;;;;;33.91;23.98;101725.88;5075863;28;19927;-84
2023/06/15 12:10:17;;;;;;;;;;;;;;;33.89;23.67;101724.69;5075967;28;19919;-83
2023/06/15 12:12:46;;;;;;;;;;;;;;;34.01;24.39;101726.38;5077302;28;19924;-83
2023/06/15 12:15:11;;;;;;;;;;;;;;;34.20;23.11;101726.13;5079640;28;20003;-84
2023/06/15 12:17:36;;;;;;;;;;;;;;;34.26;23.83;101716.22;5078194;28;19930;-84
2023/06/15 12:20:14;;;;;;;;;;;;;;;34.21;23.44;101722.16;5084308;28;19926;-84
2023/06/15 12:22:42;;;;;;;;;;;;;;;34.12;23.42;101716.94;5073501;28;19928;-84
2023/06/15 12:25:08;;;;;;;;;;;;;;;34.06;23.81;101712.09;5079298;28;19924;-84
2023/06/15 12:27:40;;;;;;;;;;;;;;;34.05;24.23;101710.50;5079239;28;20515;-85
2023/06/15 12:30:08;;;;;;;;;;;;;;;33.99;23.32;101706.50;5080449;28;19920;-84
2023/06/15 12:32:34;;;;;;;;;;;;;;;33.85;23.52;101707.97;5080132;28;19924;-84
2023/06/15 12:35:00;;;;;;;;;;;;;;;33.80;23.94;101705.53;5083529;28;20387;-85